sensor_id;sensor_type;location;lat;lon;timestamp;P1;durP1;ratioP1;P2;durP2;ratioP2
15094;SDS011;7648;52.264;9.632;2022-12-07T00:03:11;14.90;;;9.20;;
15094;SDS011;7648;52.264;9.632;2022-12-07T00:07:13;13.23;;;8.53;;
15094;SDS011;7648;52.264;9.632;2022-12-07T00:11:16;13.80;;;8.37;;
15094;SDS011;7648;52.264;9.632;2022-12-07T00:15:19;14.23;;;8.73;;
15094;SDS011;7648;52.264;9.632;2022-12-07T00:19:23;12.17;;;8.77;;
15094;SDS011;7648;52.264;9.632;2022-12-07T00:23:25;9.40;;;8.33;;
15094;SDS011;7648;52.264;9.632;2022-12-07T00:27:26;11.60;;;8.10;;
15094;SDS011;7648;52.264;9.632;2022-12-07T00:31:29;10.87;;;8.10;;
15094;SDS011;7648;52.264;9.632;2022-12-07T00:35:34;8.47;;;7.07;;
15094;SDS011;7648;52.264;9.632;2022-12-07T00:39:36;7.97;;;6.93;;
15094;SDS011;7648;52.264;9.632;2022-12-07T00:43:38;8.23;;;6.97;;
15094;SDS011;7648;52.264;9.632;2022-12-07T00:47:41;7.30;;;6.47;;
15094;SDS011;7648;52.264;9.632;2022-12-07T00:51:44;7.20;;;5.80;;
15094;SDS011;7648;52.264;9.632;2022-12-07T00:55:49;8.37;;;6.67;;
15094;SDS011;7648;52.264;9.632;2022-12-07T00:59:52;7.63;;;6.47;;
15094;SDS011;7648;52.264;9.632;2022-12-07T01:03:55;8.47;;;7.10;;
15094;SDS011;7648;52.264;9.632;2022-12-07T01:07:59;8.27;;;6.53;;
15094;SDS011;7648;52.264;9.632;2022-12-07T01:12:01;18.27;;;7.37;;
15094;SDS011;7648;52.264;9.632;2022-12-07T01:16:05;9.17;;;7.47;;
15094;SDS011;7648;52.264;9.632;2022-12-07T01:20:08;9.53;;;7.23;;
15094;SDS011;7648;52.264;9.632;2022-12-07T01:24:12;9.50;;;7.43;;
15094;SDS011;7648;52.264;9.632;2022-12-07T01:28:14;10.77;;;7.93;;
15094;SDS011;7648;52.264;9.632;2022-12-07T01:32:16;10.27;;;8.10;;
15094;SDS011;7648;52.264;9.632;2022-12-07T01:36:19;9.53;;;7.63;;
15094;SDS011;7648;52.264;9.632;2022-12-07T01:40:23;9.03;;;8.10;;
15094;SDS011;7648;52.264;9.632;2022-12-07T01:44:25;7.50;;;6.87;;
15094;SDS011;7648;52.264;9.632;2022-12-07T01:48:31;9.00;;;7.60;;
15094;SDS011;7648;52.264;9.632;2022-12-07T01:52:36;11.40;;;7.93;;
15094;SDS011;7648;52.264;9.632;2022-12-07T01:56:42;11.50;;;8.30;;
15094;SDS011;7648;52.264;9.632;2022-12-07T02:00:49;9.83;;;8.20;;
15094;SDS011;7648;52.264;9.632;2022-12-07T02:04:51;9.67;;;7.27;;
15094;SDS011;7648;52.264;9.632;2022-12-07T02:08:54;9.90;;;8.10;;
15094;SDS011;7648;52.264;9.632;2022-12-07T02:12:58;11.27;;;8.30;;
15094;SDS011;7648;52.264;9.632;2022-12-07T02:17:05;8.80;;;7.03;;
15094;SDS011;7648;52.264;9.632;2022-12-07T02:21:14;9.37;;;7.37;;
15094;SDS011;7648;52.264;9.632;2022-12-07T02:25:28;9.33;;;7.80;;
15094;SDS011;7648;52.264;9.632;2022-12-07T02:29:49;8.73;;;7.20;;
15094;SDS011;7648;52.264;9.632;2022-12-07T02:33:57;8.47;;;6.93;;
15094;SDS011;7648;52.264;9.632;2022-12-07T02:38:08;7.07;;;5.67;;
15094;SDS011;7648;52.264;9.632;2022-12-07T02:42:17;8.93;;;6.80;;
15094;SDS011;7648;52.264;9.632;2022-12-07T02:46:27;6.40;;;5.43;;
15094;SDS011;7648;52.264;9.632;2022-12-07T02:50:32;8.10;;;5.73;;
15094;SDS011;7648;52.264;9.632;2022-12-07T02:54:34;7.47;;;5.47;;
15094;SDS011;7648;52.264;9.632;2022-12-07T02:58:39;6.10;;;5.50;;
15094;SDS011;7648;52.264;9.632;2022-12-07T03:02:55;9.23;;;6.87;;
15094;SDS011;7648;52.264;9.632;2022-12-07T03:07:04;8.17;;;6.03;;
15094;SDS011;7648;52.264;9.632;2022-12-07T03:11:09;10.33;;;6.13;;
15094;SDS011;7648;52.264;9.632;2022-12-07T03:15:14;7.60;;;6.80;;
15094;SDS011;7648;52.264;9.632;2022-12-07T03:19:21;6.93;;;5.37;;
15094;SDS011;7648;52.264;9.632;2022-12-07T03:23:25;5.87;;;5.43;;
15094;SDS011;7648;52.264;9.632;2022-12-07T03:27:28;6.07;;;4.90;;
15094;SDS011;7648;52.264;9.632;2022-12-07T03:31:34;4.87;;;4.10;;
15094;SDS011;7648;52.264;9.632;2022-12-07T03:35:42;5.70;;;3.70;;
15094;SDS011;7648;52.264;9.632;2022-12-07T03:39:52;4.00;;;3.43;;
15094;SDS011;7648;52.264;9.632;2022-12-07T03:44:00;7.27;;;4.03;;
15094;SDS011;7648;52.264;9.632;2022-12-07T03:48:03;4.23;;;3.40;;
15094;SDS011;7648;52.264;9.632;2022-12-07T03:52:16;5.57;;;3.70;;
15094;SDS011;7648;52.264;9.632;2022-12-07T03:56:24;7.47;;;4.13;;
15094;SDS011;7648;52.264;9.632;2022-12-07T04:00:28;5.83;;;3.77;;
15094;SDS011;7648;52.264;9.632;2022-12-07T04:04:31;4.23;;;3.83;;
15094;SDS011;7648;52.264;9.632;2022-12-07T04:08:35;4.47;;;4.00;;
15094;SDS011;7648;52.264;9.632;2022-12-07T04:12:37;6.73;;;5.03;;
15094;SDS011;7648;52.264;9.632;2022-12-07T04:16:39;6.43;;;4.57;;
15094;SDS011;7648;52.264;9.632;2022-12-07T04:20:41;9.87;;;4.97;;
15094;SDS011;7648;52.264;9.632;2022-12-07T04:24:44;5.40;;;4.87;;
15094;SDS011;7648;52.264;9.632;2022-12-07T04:28:46;5.73;;;4.87;;
15094;SDS011;7648;52.264;9.632;2022-12-07T04:32:48;4.60;;;4.20;;
15094;SDS011;7648;52.264;9.632;2022-12-07T04:36:50;8.77;;;4.93;;
15094;SDS011;7648;52.264;9.632;2022-12-07T04:40:53;7.43;;;4.80;;
15094;SDS011;7648;52.264;9.632;2022-12-07T04:44:55;5.67;;;5.00;;
15094;SDS011;7648;52.264;9.632;2022-12-07T04:48:57;5.10;;;4.70;;
15094;SDS011;7648;52.264;9.632;2022-12-07T04:53:00;7.97;;;3.87;;
15094;SDS011;7648;52.264;9.632;2022-12-07T04:57:04;5.20;;;3.67;;
15094;SDS011;7648;52.264;9.632;2022-12-07T05:01:06;5.03;;;3.70;;
15094;SDS011;7648;52.264;9.632;2022-12-07T05:05:08;4.17;;;3.77;;
15094;SDS011;7648;52.264;9.632;2022-12-07T05:09:10;4.70;;;3.43;;
15094;SDS011;7648;52.264;9.632;2022-12-07T05:13:13;3.57;;;3.27;;
15094;SDS011;7648;52.264;9.632;2022-12-07T05:17:15;3.23;;;2.93;;
15094;SDS011;7648;52.264;9.632;2022-12-07T05:21:17;7.33;;;2.67;;
15094;SDS011;7648;52.264;9.632;2022-12-07T05:25:19;2.93;;;2.73;;
15094;SDS011;7648;52.264;9.632;2022-12-07T05:29:22;6.27;;;3.47;;
15094;SDS011;7648;52.264;9.632;2022-12-07T05:33:24;3.73;;;2.70;;
15094;SDS011;7648;52.264;9.632;2022-12-07T05:37:26;4.50;;;3.70;;
15094;SDS011;7648;52.264;9.632;2022-12-07T05:41:28;6.07;;;3.53;;
15094;SDS011;7648;52.264;9.632;2022-12-07T05:45:49;3.30;;;3.10;;
15094;SDS011;7648;52.264;9.632;2022-12-07T05:49:51;8.77;;;3.70;;
15094;SDS011;7648;52.264;9.632;2022-12-07T05:53:53;2.90;;;2.60;;
15094;SDS011;7648;52.264;9.632;2022-12-07T05:57:55;4.20;;;2.90;;
15094;SDS011;7648;52.264;9.632;2022-12-07T06:02:15;7.30;;;3.40;;
15094;SDS011;7648;52.264;9.632;2022-12-07T06:06:17;4.33;;;3.30;;
15094;SDS011;7648;52.264;9.632;2022-12-07T06:10:19;3.90;;;2.90;;
15094;SDS011;7648;52.264;9.632;2022-12-07T06:14:21;3.20;;;2.97;;
15094;SDS011;7648;52.264;9.632;2022-12-07T06:18:25;6.97;;;3.50;;
15094;SDS011;7648;52.264;9.632;2022-12-07T06:22:27;4.23;;;2.97;;
15094;SDS011;7648;52.264;9.632;2022-12-07T06:26:29;3.93;;;3.30;;
15094;SDS011;7648;52.264;9.632;2022-12-07T06:30:31;3.33;;;3.13;;
15094;SDS011;7648;52.264;9.632;2022-12-07T06:34:34;3.17;;;2.93;;
15094;SDS011;7648;52.264;9.632;2022-12-07T06:38:36;4.00;;;2.73;;
15094;SDS011;7648;52.264;9.632;2022-12-07T06:42:38;3.50;;;3.20;;
15094;SDS011;7648;52.264;9.632;2022-12-07T06:46:40;3.57;;;2.73;;
15094;SDS011;7648;52.264;9.632;2022-12-07T06:50:45;3.78;;;3.17;;
15094;SDS011;7648;52.264;9.632;2022-12-07T06:54:47;2.37;;;2.20;;
15094;SDS011;7648;52.264;9.632;2022-12-07T06:58:49;6.70;;;3.07;;
15094;SDS011;7648;52.264;9.632;2022-12-07T07:02:51;3.53;;;2.40;;
15094;SDS011;7648;52.264;9.632;2022-12-07T07:06:54;1.80;;;1.70;;
15094;SDS011;7648;52.264;9.632;2022-12-07T07:10:56;2.47;;;1.67;;
15094;SDS011;7648;52.264;9.632;2022-12-07T07:14:58;2.40;;;2.30;;
15094;SDS011;7648;52.264;9.632;2022-12-07T07:19:00;2.67;;;1.87;;
15094;SDS011;7648;52.264;9.632;2022-12-07T07:23:03;1.70;;;1.60;;
15094;SDS011;7648;52.264;9.632;2022-12-07T07:27:05;1.53;;;1.43;;
15094;SDS011;7648;52.264;9.632;2022-12-07T07:31:07;3.03;;;1.60;;
15094;SDS011;7648;52.264;9.632;2022-12-07T07:35:09;3.40;;;1.57;;
15094;SDS011;7648;52.264;9.632;2022-12-07T07:39:13;2.10;;;1.60;;
15094;SDS011;7648;52.264;9.632;2022-12-07T07:43:15;1.97;;;1.77;;
15094;SDS011;7648;52.264;9.632;2022-12-07T07:47:17;1.40;;;1.30;;
15094;SDS011;7648;52.264;9.632;2022-12-07T07:51:19;2.90;;;1.50;;
15094;SDS011;7648;52.264;9.632;2022-12-07T07:55:22;1.80;;;1.40;;
15094;SDS011;7648;52.264;9.632;2022-12-07T07:59:24;3.40;;;1.37;;
15094;SDS011;7648;52.264;9.632;2022-12-07T08:03:26;3.03;;;1.10;;
15094;SDS011;7648;52.264;9.632;2022-12-07T08:07:28;2.20;;;1.40;;
15094;SDS011;7648;52.264;9.632;2022-12-07T08:11:31;1.27;;;1.17;;
15094;SDS011;7648;52.264;9.632;2022-12-07T08:15:33;2.50;;;1.40;;
15094;SDS011;7648;52.264;9.632;2022-12-07T08:19:38;1.10;;;1.10;;
15094;SDS011;7648;52.264;9.632;2022-12-07T08:23:40;1.70;;;0.93;;
15094;SDS011;7648;52.264;9.632;2022-12-07T08:27:44;0.97;;;0.97;;
15094;SDS011;7648;52.264;9.632;2022-12-07T08:31:46;1.30;;;0.90;;
15094;SDS011;7648;52.264;9.632;2022-12-07T08:35:48;3.23;;;0.90;;
15094;SDS011;7648;52.264;9.632;2022-12-07T08:39:50;1.00;;;0.90;;
15094;SDS011;7648;52.264;9.632;2022-12-07T08:43:53;1.17;;;0.90;;
15094;SDS011;7648;52.264;9.632;2022-12-07T08:47:56;3.10;;;1.40;;
15094;SDS011;7648;52.264;9.632;2022-12-07T08:52:02;1.53;;;1.20;;
15094;SDS011;7648;52.264;9.632;2022-12-07T08:56:06;1.60;;;0.93;;
15094;SDS011;7648;52.264;9.632;2022-12-07T09:00:10;2.33;;;1.47;;
15094;SDS011;7648;52.264;9.632;2022-12-07T09:04:13;2.17;;;1.17;;
15094;SDS011;7648;52.264;9.632;2022-12-07T09:08:16;2.83;;;0.90;;
15094;SDS011;7648;52.264;9.632;2022-12-07T09:12:18;5.73;;;1.00;;
15094;SDS011;7648;52.264;9.632;2022-12-07T09:16:21;1.93;;;1.07;;
15094;SDS011;7648;52.264;9.632;2022-12-07T09:20:23;1.07;;;0.97;;
15094;SDS011;7648;52.264;9.632;2022-12-07T09:24:25;1.30;;;0.80;;
15094;SDS011;7648;52.264;9.632;2022-12-07T09:28:27;1.30;;;0.83;;
15094;SDS011;7648;52.264;9.632;2022-12-07T09:32:31;1.33;;;0.93;;
15094;SDS011;7648;52.264;9.632;2022-12-07T09:36:33;1.47;;;1.00;;
15094;SDS011;7648;52.264;9.632;2022-12-07T09:40:35;1.40;;;1.00;;
15094;SDS011;7648;52.264;9.632;2022-12-07T09:44:39;1.70;;;0.90;;
15094;SDS011;7648;52.264;9.632;2022-12-07T09:48:43;0.60;;;0.60;;
15094;SDS011;7648;52.264;9.632;2022-12-07T09:52:45;0.57;;;0.57;;
15094;SDS011;7648;52.264;9.632;2022-12-07T09:56:49;0.53;;;0.53;;
15094;SDS011;7648;52.264;9.632;2022-12-07T10:00:52;1.07;;;0.80;;
15094;SDS011;7648;52.264;9.632;2022-12-07T10:04:58;0.93;;;0.87;;
15094;SDS011;7648;52.264;9.632;2022-12-07T10:09:00;1.33;;;1.00;;
15094;SDS011;7648;52.264;9.632;2022-12-07T10:13:04;0.60;;;0.60;;
15094;SDS011;7648;52.264;9.632;2022-12-07T10:17:30;0.87;;;0.70;;
15094;SDS011;7648;52.264;9.632;2022-12-07T10:21:36;0.97;;;0.70;;
15094;SDS011;7648;52.264;9.632;2022-12-07T10:25:38;1.77;;;1.00;;
15094;SDS011;7648;52.264;9.632;2022-12-07T10:29:42;0.60;;;0.60;;
15094;SDS011;7648;52.264;9.632;2022-12-07T10:33:50;1.00;;;0.60;;
15094;SDS011;7648;52.264;9.632;2022-12-07T10:37:56;1.00;;;0.70;;
15094;SDS011;7648;52.264;9.632;2022-12-07T10:42:00;1.53;;;0.83;;
15094;SDS011;7648;52.264;9.632;2022-12-07T10:46:22;1.83;;;0.90;;
15094;SDS011;7648;52.264;9.632;2022-12-07T10:50:47;2.53;;;0.83;;
15094;SDS011;7648;52.264;9.632;2022-12-07T10:55:03;2.40;;;0.80;;
15094;SDS011;7648;52.264;9.632;2022-12-07T10:59:33;2.50;;;1.10;;
15094;SDS011;7648;52.264;9.632;2022-12-07T11:04:02;1.00;;;0.83;;
15094;SDS011;7648;52.264;9.632;2022-12-07T11:08:21;4.03;;;1.30;;
15094;SDS011;7648;52.264;9.632;2022-12-07T11:12:38;1.77;;;0.63;;
15094;SDS011;7648;52.264;9.632;2022-12-07T11:16:50;2.10;;;1.10;;
15094;SDS011;7648;52.264;9.632;2022-12-07T11:20:59;1.63;;;1.53;;
15094;SDS011;7648;52.264;9.632;2022-12-07T11:25:21;2.13;;;1.37;;
15094;SDS011;7648;52.264;9.632;2022-12-07T11:29:37;1.07;;;1.07;;
15094;SDS011;7648;52.264;9.632;2022-12-07T11:33:57;1.50;;;0.80;;
15094;SDS011;7648;52.264;9.632;2022-12-07T11:38:08;5.07;;;1.10;;
15094;SDS011;7648;52.264;9.632;2022-12-07T11:42:15;1.93;;;0.93;;
15094;SDS011;7648;52.264;9.632;2022-12-07T11:46:25;1.20;;;0.70;;
15094;SDS011;7648;52.264;9.632;2022-12-07T11:50:32;2.37;;;0.90;;
15094;SDS011;7648;52.264;9.632;2022-12-07T11:54:39;1.43;;;0.97;;
15094;SDS011;7648;52.264;9.632;2022-12-07T11:58:47;3.60;;;1.03;;
15094;SDS011;7648;52.264;9.632;2022-12-07T12:02:55;0.90;;;0.90;;
15094;SDS011;7648;52.264;9.632;2022-12-07T12:07:02;1.03;;;0.90;;
15094;SDS011;7648;52.264;9.632;2022-12-07T12:11:09;4.73;;;0.83;;
15094;SDS011;7648;52.264;9.632;2022-12-07T12:15:29;4.23;;;0.90;;
15094;SDS011;7648;52.264;9.632;2022-12-07T12:19:41;0.97;;;0.90;;
15094;SDS011;7648;52.264;9.632;2022-12-07T12:23:47;1.90;;;1.00;;
15094;SDS011;7648;52.264;9.632;2022-12-07T12:27:53;2.83;;;1.10;;
15094;SDS011;7648;52.264;9.632;2022-12-07T12:32:07;3.30;;;0.90;;
15094;SDS011;7648;52.264;9.632;2022-12-07T12:40:56;3.30;;;1.03;;
15094;SDS011;7648;52.264;9.632;2022-12-07T12:45:04;2.40;;;1.03;;
15094;SDS011;7648;52.264;9.632;2022-12-07T12:53:44;3.30;;;1.10;;
15094;SDS011;7648;52.264;9.632;2022-12-07T12:57:48;3.40;;;1.20;;
15094;SDS011;7648;52.264;9.632;2022-12-07T13:02:47;5.13;;;1.17;;
15094;SDS011;7648;52.264;9.632;2022-12-07T13:06:50;5.13;;;1.30;;
15094;SDS011;7648;52.264;9.632;2022-12-07T13:10:53;3.50;;;1.20;;
15094;SDS011;7648;52.264;9.632;2022-12-07T13:24:06;2.93;;;1.70;;
15094;SDS011;7648;52.264;9.632;2022-12-07T13:28:15;1.63;;;1.13;;
15094;SDS011;7648;52.264;9.632;2022-12-07T13:32:21;1.00;;;1.00;;
15094;SDS011;7648;52.264;9.632;2022-12-07T13:36:26;2.97;;;1.00;;
15094;SDS011;7648;52.264;9.632;2022-12-07T13:40:31;1.70;;;0.97;;
15094;SDS011;7648;52.264;9.632;2022-12-07T13:44:39;3.20;;;1.30;;
15094;SDS011;7648;52.264;9.632;2022-12-07T13:48:42;4.87;;;1.47;;
15094;SDS011;7648;52.264;9.632;2022-12-07T13:52:46;2.23;;;1.20;;
15094;SDS011;7648;52.264;9.632;2022-12-07T13:56:49;1.97;;;1.37;;
15094;SDS011;7648;52.264;9.632;2022-12-07T14:00:54;1.47;;;0.73;;
15094;SDS011;7648;52.264;9.632;2022-12-07T14:05:06;3.13;;;1.00;;
15094;SDS011;7648;52.264;9.632;2022-12-07T14:09:14;1.10;;;1.00;;
15094;SDS011;7648;52.264;9.632;2022-12-07T14:13:24;4.13;;;1.40;;
15094;SDS011;7648;52.264;9.632;2022-12-07T14:17:33;3.07;;;1.07;;
15094;SDS011;7648;52.264;9.632;2022-12-07T14:21:34;4.23;;;1.17;;
15094;SDS011;7648;52.264;9.632;2022-12-07T14:30:14;3.33;;;0.87;;
15094;SDS011;7648;52.264;9.632;2022-12-07T14:34:20;3.63;;;0.80;;
15094;SDS011;7648;52.264;9.632;2022-12-07T14:38:23;1.60;;;0.90;;
15094;SDS011;7648;52.264;9.632;2022-12-07T14:42:27;1.87;;;0.87;;
15094;SDS011;7648;52.264;9.632;2022-12-07T14:46:30;2.00;;;0.70;;
15094;SDS011;7648;52.264;9.632;2022-12-07T14:50:35;1.83;;;0.97;;
15094;SDS011;7648;52.264;9.632;2022-12-07T14:54:39;3.23;;;0.83;;
15094;SDS011;7648;52.264;9.632;2022-12-07T14:58:42;0.90;;;0.90;;
15094;SDS011;7648;52.264;9.632;2022-12-07T15:02:44;2.27;;;1.40;;
15094;SDS011;7648;52.264;9.632;2022-12-07T15:06:55;1.03;;;1.00;;
15094;SDS011;7648;52.264;9.632;2022-12-07T15:10:58;2.87;;;1.03;;
15094;SDS011;7648;52.264;9.632;2022-12-07T15:15:00;3.17;;;0.93;;
15094;SDS011;7648;52.264;9.632;2022-12-07T15:19:02;2.57;;;1.00;;
15094;SDS011;7648;52.264;9.632;2022-12-07T15:23:06;2.73;;;0.97;;
15094;SDS011;7648;52.264;9.632;2022-12-07T15:27:08;0.90;;;0.90;;
15094;SDS011;7648;52.264;9.632;2022-12-07T15:31:10;0.73;;;0.70;;
15094;SDS011;7648;52.264;9.632;2022-12-07T15:35:13;1.40;;;1.07;;
15094;SDS011;7648;52.264;9.632;2022-12-07T15:39:16;1.00;;;1.00;;
15094;SDS011;7648;52.264;9.632;2022-12-07T15:43:18;1.17;;;0.90;;
15094;SDS011;7648;52.264;9.632;2022-12-07T15:47:40;2.47;;;1.20;;
15094;SDS011;7648;52.264;9.632;2022-12-07T15:51:44;3.90;;;1.27;;
15094;SDS011;7648;52.264;9.632;2022-12-07T15:55:48;2.60;;;1.00;;
15094;SDS011;7648;52.264;9.632;2022-12-07T15:59:50;1.13;;;1.07;;
15094;SDS011;7648;52.264;9.632;2022-12-07T16:03:52;1.10;;;1.00;;
15094;SDS011;7648;52.264;9.632;2022-12-07T16:07:54;2.97;;;1.00;;
15094;SDS011;7648;52.264;9.632;2022-12-07T16:11:57;1.43;;;1.33;;
15094;SDS011;7648;52.264;9.632;2022-12-07T16:16:01;4.17;;;0.87;;
15094;SDS011;7648;52.264;9.632;2022-12-07T16:20:05;4.20;;;1.40;;
15094;SDS011;7648;52.264;9.632;2022-12-07T16:24:08;4.33;;;1.30;;
15094;SDS011;7648;52.264;9.632;2022-12-07T16:28:14;2.77;;;1.53;;
15094;SDS011;7648;52.264;9.632;2022-12-07T16:32:16;1.77;;;1.20;;
15094;SDS011;7648;52.264;9.632;2022-12-07T16:36:18;2.47;;;1.53;;
15094;SDS011;7648;52.264;9.632;2022-12-07T16:40:22;5.90;;;1.60;;
15094;SDS011;7648;52.264;9.632;2022-12-07T16:44:25;3.97;;;1.30;;
15094;SDS011;7648;52.264;9.632;2022-12-07T16:48:28;1.50;;;1.40;;
15094;SDS011;7648;52.264;9.632;2022-12-07T16:52:30;3.20;;;1.77;;
15094;SDS011;7648;52.264;9.632;2022-12-07T16:56:32;2.17;;;1.43;;
15094;SDS011;7648;52.264;9.632;2022-12-07T17:00:35;3.97;;;1.50;;
15094;SDS011;7648;52.264;9.632;2022-12-07T17:04:38;5.33;;;1.73;;
15094;SDS011;7648;52.264;9.632;2022-12-07T17:08:42;1.17;;;1.13;;
15094;SDS011;7648;52.264;9.632;2022-12-07T17:12:44;3.87;;;1.67;;
15094;SDS011;7648;52.264;9.632;2022-12-07T17:16:48;2.13;;;2.03;;
15094;SDS011;7648;52.264;9.632;2022-12-07T17:20:50;3.33;;;2.10;;
15094;SDS011;7648;52.264;9.632;2022-12-07T17:24:51;2.27;;;2.07;;
15094;SDS011;7648;52.264;9.632;2022-12-07T17:28:53;3.17;;;1.90;;
15094;SDS011;7648;52.264;9.632;2022-12-07T17:32:57;2.63;;;2.10;;
15094;SDS011;7648;52.264;9.632;2022-12-07T17:36:59;3.30;;;2.72;;
15094;SDS011;7648;52.264;9.632;2022-12-07T17:41:08;1.90;;;1.80;;
15094;SDS011;7648;52.264;9.632;2022-12-07T17:45:11;3.90;;;2.23;;
15094;SDS011;7648;52.264;9.632;2022-12-07T17:49:15;2.90;;;1.70;;
15094;SDS011;7648;52.264;9.632;2022-12-07T17:53:17;3.50;;;1.80;;
15094;SDS011;7648;52.264;9.632;2022-12-07T17:57:19;2.20;;;2.10;;
15094;SDS011;7648;52.264;9.632;2022-12-07T18:01:21;2.80;;;2.07;;
15094;SDS011;7648;52.264;9.632;2022-12-07T18:05:24;3.60;;;1.83;;
15094;SDS011;7648;52.264;9.632;2022-12-07T18:09:26;3.43;;;2.40;;
15094;SDS011;7648;52.264;9.632;2022-12-07T18:13:28;3.40;;;2.40;;
15094;SDS011;7648;52.264;9.632;2022-12-07T18:17:37;2.87;;;2.63;;
15094;SDS011;7648;52.264;9.632;2022-12-07T18:21:40;4.10;;;2.80;;
15094;SDS011;7648;52.264;9.632;2022-12-07T18:25:45;3.30;;;2.33;;
15094;SDS011;7648;52.264;9.632;2022-12-07T18:29:48;2.70;;;2.40;;
15094;SDS011;7648;52.264;9.632;2022-12-07T18:33:49;4.40;;;2.70;;
15094;SDS011;7648;52.264;9.632;2022-12-07T18:37:56;7.37;;;2.53;;
15094;SDS011;7648;52.264;9.632;2022-12-07T18:41:58;2.20;;;2.10;;
15094;SDS011;7648;52.264;9.632;2022-12-07T18:46:00;3.73;;;2.30;;
15094;SDS011;7648;52.264;9.632;2022-12-07T18:50:02;2.53;;;2.43;;
15094;SDS011;7648;52.264;9.632;2022-12-07T18:54:06;2.53;;;2.30;;
15094;SDS011;7648;52.264;9.632;2022-12-07T18:58:09;6.43;;;2.63;;
15094;SDS011;7648;52.264;9.632;2022-12-07T19:02:11;3.30;;;2.93;;
15094;SDS011;7648;52.264;9.632;2022-12-07T19:06:12;3.67;;;3.20;;
15094;SDS011;7648;52.264;9.632;2022-12-07T19:10:16;5.37;;;2.10;;
15094;SDS011;7648;52.264;9.632;2022-12-07T19:14:21;2.67;;;2.47;;
15094;SDS011;7648;52.264;9.632;2022-12-07T19:18:24;3.97;;;2.63;;
15094;SDS011;7648;52.264;9.632;2022-12-07T19:22:27;2.40;;;2.10;;
15094;SDS011;7648;52.264;9.632;2022-12-07T19:26:30;3.07;;;1.93;;
15094;SDS011;7648;52.264;9.632;2022-12-07T19:30:32;3.33;;;2.10;;
15094;SDS011;7648;52.264;9.632;2022-12-07T19:34:35;2.63;;;1.67;;
15094;SDS011;7648;52.264;9.632;2022-12-07T19:38:37;1.90;;;1.80;;
15094;SDS011;7648;52.264;9.632;2022-12-07T19:42:40;4.57;;;2.17;;
15094;SDS011;7648;52.264;9.632;2022-12-07T19:46:43;3.37;;;2.87;;
15094;SDS011;7648;52.264;9.632;2022-12-07T19:50:47;4.17;;;2.23;;
15094;SDS011;7648;52.264;9.632;2022-12-07T19:54:49;3.47;;;2.60;;
15094;SDS011;7648;52.264;9.632;2022-12-07T19:58:53;2.47;;;2.10;;
15094;SDS011;7648;52.264;9.632;2022-12-07T20:02:55;2.90;;;2.70;;
15094;SDS011;7648;52.264;9.632;2022-12-07T20:06:58;2.57;;;2.37;;
15094;SDS011;7648;52.264;9.632;2022-12-07T20:11:01;2.20;;;2.10;;
15094;SDS011;7648;52.264;9.632;2022-12-07T20:15:26;4.90;;;2.80;;
15094;SDS011;7648;52.264;9.632;2022-12-07T20:19:28;2.70;;;2.50;;
15094;SDS011;7648;52.264;9.632;2022-12-07T20:23:30;3.80;;;2.50;;
15094;SDS011;7648;52.264;9.632;2022-12-07T20:27:32;3.20;;;3.00;;
15094;SDS011;7648;52.264;9.632;2022-12-07T20:31:36;3.00;;;2.67;;
15094;SDS011;7648;52.264;9.632;2022-12-07T20:35:38;2.87;;;2.50;;
15094;SDS011;7648;52.264;9.632;2022-12-07T20:39:40;3.00;;;2.80;;
15094;SDS011;7648;52.264;9.632;2022-12-07T20:43:42;4.80;;;3.07;;
15094;SDS011;7648;52.264;9.632;2022-12-07T20:47:45;2.97;;;2.60;;
15094;SDS011;7648;52.264;9.632;2022-12-07T20:51:47;3.00;;;2.80;;
15094;SDS011;7648;52.264;9.632;2022-12-07T20:55:50;3.20;;;3.00;;
15094;SDS011;7648;52.264;9.632;2022-12-07T20:59:52;2.50;;;2.30;;
15094;SDS011;7648;52.264;9.632;2022-12-07T21:03:55;3.27;;;2.80;;
15094;SDS011;7648;52.264;9.632;2022-12-07T21:07:58;3.47;;;3.27;;
15094;SDS011;7648;52.264;9.632;2022-12-07T21:12:00;3.60;;;3.40;;
15094;SDS011;7648;52.264;9.632;2022-12-07T21:16:05;3.70;;;3.50;;
15094;SDS011;7648;52.264;9.632;2022-12-07T21:20:10;3.40;;;3.20;;
15094;SDS011;7648;52.264;9.632;2022-12-07T21:24:12;4.07;;;3.70;;
15094;SDS011;7648;52.264;9.632;2022-12-07T21:28:14;4.27;;;3.87;;
15094;SDS011;7648;52.264;9.632;2022-12-07T21:32:16;7.13;;;4.00;;
15094;SDS011;7648;52.264;9.632;2022-12-07T21:36:22;4.83;;;3.27;;
15094;SDS011;7648;52.264;9.632;2022-12-07T21:40:25;3.97;;;3.67;;
15094;SDS011;7648;52.264;9.632;2022-12-07T21:44:27;4.50;;;4.20;;
15094;SDS011;7648;52.264;9.632;2022-12-07T21:48:29;9.33;;;3.53;;
15094;SDS011;7648;52.264;9.632;2022-12-07T21:52:33;4.03;;;3.60;;
15094;SDS011;7648;52.264;9.632;2022-12-07T21:56:35;12.97;;;4.17;;
15094;SDS011;7648;52.264;9.632;2022-12-07T22:00:39;4.30;;;3.47;;
15094;SDS011;7648;52.264;9.632;2022-12-07T22:04:41;3.83;;;3.23;;
15094;SDS011;7648;52.264;9.632;2022-12-07T22:08:44;3.80;;;3.50;;
15094;SDS011;7648;52.264;9.632;2022-12-07T22:12:46;3.83;;;2.50;;
15094;SDS011;7648;52.264;9.632;2022-12-07T22:16:48;5.87;;;3.77;;
15094;SDS011;7648;52.264;9.632;2022-12-07T22:20:51;2.63;;;2.50;;
15094;SDS011;7648;52.264;9.632;2022-12-07T22:24:54;3.27;;;3.00;;
15094;SDS011;7648;52.264;9.632;2022-12-07T22:28:56;3.43;;;3.00;;
15094;SDS011;7648;52.264;9.632;2022-12-07T22:32:58;4.07;;;3.77;;
15094;SDS011;7648;52.264;9.632;2022-12-07T22:37:00;4.13;;;3.73;;
15094;SDS011;7648;52.264;9.632;2022-12-07T22:41:08;4.20;;;3.80;;
15094;SDS011;7648;52.264;9.632;2022-12-07T22:45:11;4.43;;;3.87;;
15094;SDS011;7648;52.264;9.632;2022-12-07T22:49:12;7.33;;;3.80;;
15094;SDS011;7648;52.264;9.632;2022-12-07T22:53:14;4.80;;;4.10;;
15094;SDS011;7648;52.264;9.632;2022-12-07T22:57:18;4.10;;;3.80;;
15094;SDS011;7648;52.264;9.632;2022-12-07T23:01:20;4.10;;;3.73;;
15094;SDS011;7648;52.264;9.632;2022-12-07T23:05:23;4.10;;;3.77;;
15094;SDS011;7648;52.264;9.632;2022-12-07T23:09:25;3.80;;;3.50;;
15094;SDS011;7648;52.264;9.632;2022-12-07T23:13:28;5.30;;;3.40;;
15094;SDS011;7648;52.264;9.632;2022-12-07T23:17:35;4.13;;;3.67;;
15094;SDS011;7648;52.264;9.632;2022-12-07T23:21:38;3.90;;;3.50;;
15094;SDS011;7648;52.264;9.632;2022-12-07T23:25:40;4.63;;;3.73;;
15094;SDS011;7648;52.264;9.632;2022-12-07T23:29:43;3.47;;;3.03;;
15094;SDS011;7648;52.264;9.632;2022-12-07T23:33:45;5.57;;;4.03;;
15094;SDS011;7648;52.264;9.632;2022-12-07T23:37:48;5.37;;;3.27;;
15094;SDS011;7648;52.264;9.632;2022-12-07T23:41:50;4.90;;;3.93;;
15094;SDS011;7648;52.264;9.632;2022-12-07T23:45:53;4.67;;;3.60;;
15094;SDS011;7648;52.264;9.632;2022-12-07T23:49:55;5.57;;;3.93;;
15094;SDS011;7648;52.264;9.632;2022-12-07T23:53:57;3.87;;;3.57;;
15094;SDS011;7648;52.264;9.632;2022-12-07T23:58:00;6.47;;;3.47;;
